Dickinson Theodore Roosevelt Regional Airport
KDIK : now visible

Airfield :











YOU CAN JOIN US ON...

 
LOGIN :

Register | Disclaimer

   EN    FR    IT 

 









Legend :    VFR   Marginal VFR   IFR   Intensive IFR   Very Intensive IFR
Visi :
Ceiling :
>= 8 km
>= 3000ft
5 to 8 km
1000 to 3000 ft
1500m to 5 km
500 to 1000 ft
800 to 1500m
200 to 500 ft
< 800m
< 200 ft
Symbols :   Thunderstorms  Fog  Heavy snow  Heavy precipitations  Wind > 20 kt






- Airport Elevation : 2592 ft


KDIK - Dickinson Theodore Roosevelt Regional

CURRENT METAR :
  • 071956Z AUTO 29019G27KT 10SM SCT080 SCT095 15/M04 A2968 RMK AO2 PK WND 30032/1941 SLP057 T01501039

EXPIRED METARs :
  • 071856Z AUTO 31018G27KT 10SM CLR 16/M03 A2968 RMK AO2 PK WND 31030/1827 SLP055 T01561033
  • 071756Z AUTO 29017G26KT 8SM FEW060 16/M01 A2969 RMK AO2 PK WND 31028/1745 SLP055 T01561006 10156 21006 56009

TAF KDIK
Valid from the 07 at 20:00 until the 08 at 18:00 UTC


071950Z 0720/0818 30022G30KT P6SM SCT070 BKN100
FM080100 31016G24KT P6SM FEW100 SCT220
FM080300 32011KT P6SM SCT200
FM080500 31012G20KT P6SM SCT050 BKN090
FM081300 30019G28KT P6SM FEW070



MET'MAP, your aeronautical weather chart ! - Copyright ORBIFLY December 2007 - Disclaimer

ORBIFLY MET'MAP TEAM :

Programming & Development : Alexandra Zaïnal
Concept & original design : Baudouin d'Aumeries
Assistance for programming : Marc-Olivier Méhu
Technical & hardware support : Manuel Goepfert

Contact : metmap@orbifly.com




SOURCES & CREDITS :

   NOAA       Earth
Advisory